Cuba, Ohio
Current Conditions -  °F | °C
As of 4:54 AM on Monday 22 Dec 2014 (Local Time) from KILN Reporting Station
Haze Haze  
Wind Chill: 23°   Ceiling: 4000
Heat Index: 28°   Visibility: 6mi
Dew Point: 24°   Wind: 5mph
Humidity: 85%   Direction: 70°ENE
Pressure: 30.03"   Gusts: NA
Location:  39.36°N, 83.86°W
Report Text: KILN 220954Z AUTO 07004KT 6SM BR OVC040 M02/M04 A3003 RMK AO2 SLP195 T10221044
Loading
Personal Weather Stations






























Interactive Weather Map New forecast layout! Learn more

10-Day Weather Forecast

Advertisements
Track Severe Weather on mobile